Time;durP1;ratioP1;P1;durP2;ratioP2;P2;SDS_P1;SDS_P2;PMS_P1;PMS_P2;Temp;Humidity;BMP_temperature;BMP_pressure;BME280_temperature;BME280_humidity;BME280_pressure;Samples;Min_cycle;Max_cycle;Signal;HPM_P1;HPM_P2
2023/09/18 00:01:51;;;;;;;9.90;6.03;;;15.30;99.90;;;;;;4193973;28;20040;-60
2023/09/18 00:03:52;;;;;;;9.85;5.47;;;15.30;99.90;;;;;;4195021;28;20614;-61
2023/09/18 00:05:53;;;;;;;8.70;5.93;;;15.30;99.90;;;;;;4194825;28;20040;-61
2023/09/18 00:07:54;;;;;;;8.55;5.47;;;15.30;99.90;;;;;;4195119;28;20044;-60
2023/09/18 00:09:55;;;;;;;11.18;5.15;;;15.30;99.90;;;;;;4194740;28;20063;-60
2023/09/18 00:11:56;;;;;;;7.10;5.40;;;15.40;99.90;;;;;;4195506;28;21078;-61
2023/09/18 00:13:57;;;;;;;6.43;5.03;;;15.40;99.90;;;;;;4194112;28;20056;-60
2023/09/18 00:15:59;;;;;;;6.22;4.95;;;15.40;99.90;;;;;;4194884;28;20433;-61
2023/09/18 00:18:01;;;;;;;8.38;4.85;;;15.40;99.90;;;;;;4194546;28;20447;-61
2023/09/18 00:20:06;;;;;;;7.78;5.03;;;15.50;99.90;;;;;;4193733;28;20052;-60
2023/09/18 00:22:07;;;;;;;6.50;4.32;;;15.40;99.90;;;;;;4193796;28;20439;-61
2023/09/18 00:24:09;;;;;;;6.20;4.10;;;15.50;99.90;;;;;;4193272;28;20074;-62
2023/09/18 00:26:10;;;;;;;5.75;4.63;;;15.40;99.90;;;;;;4195510;28;20020;-61
2023/09/18 00:28:11;;;;;;;10.80;4.90;;;15.40;99.90;;;;;;4193937;28;20024;-62
2023/09/18 00:30:12;;;;;;;7.32;4.93;;;15.50;99.90;;;;;;4195433;28;20020;-60
2023/09/18 00:32:13;;;;;;;5.13;3.70;;;15.40;99.90;;;;;;4194549;28;20435;-60
2023/09/18 00:34:14;;;;;;;6.88;5.15;;;15.40;99.90;;;;;;4194566;28;20102;-62
2023/09/18 00:36:16;;;;;;;5.70;4.40;;;15.40;99.90;;;;;;4193523;28;20094;-61
2023/09/18 00:38:17;;;;;;;9.23;5.05;;;15.40;99.90;;;;;;4194722;28;20116;-61
2023/09/18 00:40:19;;;;;;;7.30;4.80;;;15.30;99.90;;;;;;4194303;28;20040;-61
2023/09/18 00:42:22;;;;;;;8.45;4.93;;;15.30;99.90;;;;;;4194973;28;20029;-60
2023/09/18 00:44:26;;;;;;;7.97;4.97;;;15.20;99.90;;;;;;4194210;28;20021;-61
2023/09/18 00:46:27;;;;;;;6.72;4.97;;;15.10;99.90;;;;;;4194585;28;20033;-61
2023/09/18 00:48:29;;;;;;;9.00;5.03;;;15.20;99.90;;;;;;4194660;28;20082;-61
2023/09/18 00:50:31;;;;;;;5.38;4.50;;;15.10;99.90;;;;;;4194834;28;20449;-61
2023/09/18 00:52:33;;;;;;;6.25;5.43;;;15.10;99.90;;;;;;4194415;28;20107;-62
2023/09/18 00:54:36;;;;;;;5.32;4.82;;;15.10;99.90;;;;;;4194107;28;20102;-62
2023/09/18 00:56:37;;;;;;;7.60;5.07;;;15.10;99.90;;;;;;4194943;28;20036;-62
2023/09/18 00:58:38;;;;;;;6.60;4.85;;;15.10;99.90;;;;;;4194044;28;20036;-61
2023/09/18 01:00:40;;;;;;;6.30;5.30;;;15.10;99.90;;;;;;4195254;28;20063;-60
2023/09/18 01:02:42;;;;;;;7.05;4.90;;;15.00;99.90;;;;;;4194146;28;20070;-64
2023/09/18 01:04:44;;;;;;;9.88;5.05;;;15.10;99.90;;;;;;4194453;28;20066;-61
2023/09/18 01:06:45;;;;;;;8.88;4.50;;;15.00;99.90;;;;;;4193291;28;20078;-62
2023/09/18 01:08:49;;;;;;;5.85;3.92;;;14.90;99.90;;;;;;4194637;28;20554;-64
2023/09/18 01:11:15;;;;;;;6.30;4.82;;;14.80;99.90;;;;;;4192395;28;20036;-62
2023/09/18 01:13:29;;;;;;;8.52;4.70;;;14.80;99.90;;;;;;4194984;28;20032;-62
2023/09/18 01:15:35;;;;;;;7.82;5.22;;;14.70;99.90;;;;;;4193165;28;20044;-61
2023/09/18 01:17:40;;;;;;;6.75;5.15;;;14.60;99.90;;;;;;4194203;28;20089;-61
2023/09/18 01:19:46;;;;;;;8.88;5.50;;;14.60;99.90;;;;;;4193853;28;20032;-61
2023/09/18 01:21:48;;;;;;;10.57;6.38;;;14.60;99.90;;;;;;4183034;28;20028;-61
2023/09/18 01:23:49;;;;;;;7.82;6.07;;;14.50;99.90;;;;;;4193499;28;20051;-60
2023/09/18 01:25:50;;;;;;;9.65;6.95;;;14.40;99.90;;;;;;4194165;28;20058;-61
2023/09/18 01:27:52;;;;;;;8.52;6.00;;;14.30;99.90;;;;;;4192430;28;20041;-63
2023/09/18 01:29:55;;;;;;;8.75;6.50;;;14.30;99.90;;;;;;4194622;28;20086;-62
2023/09/18 01:31:58;;;;;;;7.70;6.03;;;14.30;99.90;;;;;;4193488;28;20358;-61
2023/09/18 01:34:00;;;;;;;13.15;7.03;;;14.20;99.90;;;;;;4193919;28;20432;-63
2023/09/18 01:36:02;;;;;;;12.52;6.53;;;14.20;99.90;;;;;;4193576;28;20403;-63
2023/09/18 01:38:04;;;;;;;10.23;6.35;;;14.30;99.90;;;;;;4192571;28;20036;-62
2023/09/18 01:40:06;;;;;;;12.25;6.28;;;14.30;99.90;;;;;;4193822;28;20028;-60
2023/09/18 01:42:10;;;;;;;15.52;6.53;;;14.30;99.90;;;;;;4193401;28;20134;-62
2023/09/18 01:44:12;;;;;;;20.33;8.20;;;14.30;99.90;;;;;;4194077;28;20036;-61
2023/09/18 01:46:13;;;;;;;18.02;6.82;;;14.30;99.90;;;;;;4193515;28;20081;-62
2023/09/18 01:48:14;;;;;;;14.30;6.60;;;14.20;99.90;;;;;;4194378;28;20021;-62
2023/09/18 01:50:16;;;;;;;16.92;7.10;;;14.20;99.90;;;;;;4193150;28;20133;-61
2023/09/18 01:52:17;;;;;;;13.43;6.78;;;14.20;99.90;;;;;;4194695;28;20024;-61
2023/09/18 01:54:18;;;;;;;18.52;7.53;;;14.20;99.90;;;;;;4174845;28;20045;-60
2023/09/18 01:56:20;;;;;;;21.17;5.88;;;14.20;99.90;;;;;;4193410;28;20086;-61
2023/09/18 01:58:21;;;;;;;12.23;6.53;;;14.20;99.90;;;;;;4192712;28;20105;-59
2023/09/18 02:00:22;;;;;;;14.02;6.28;;;14.20;99.90;;;;;;4194473;28;20086;-61
2023/09/18 02:02:23;;;;;;;14.55;5.82;;;14.20;99.90;;;;;;4192346;28;20090;-61
2023/09/18 02:04:25;;;;;;;15.93;7.93;;;14.30;99.90;;;;;;4193987;28;20056;-60
2023/09/18 02:06:26;;;;;;;13.45;6.45;;;14.30;99.90;;;;;;4192503;28;20040;-62
2023/09/18 02:08:27;;;;;;;19.02;7.18;;;14.40;99.90;;;;;;4193749;28;20036;-62
2023/09/18 02:10:29;;;;;;;16.42;7.32;;;14.40;99.90;;;;;;4193640;28;20028;-62
2023/09/18 02:12:30;;;;;;;18.60;6.13;;;14.40;99.90;;;;;;4193047;28;20040;-63
2023/09/18 02:14:31;;;;;;;17.80;6.88;;;14.30;99.90;;;;;;4194065;28;20033;-62
2023/09/18 02:16:34;;;;;;;20.63;6.70;;;14.40;99.90;;;;;;4192545;28;20032;-60
2023/09/18 02:18:35;;;;;;;16.50;6.13;;;14.30;99.90;;;;;;4193972;28;20032;-62
2023/09/18 02:20:44;;;;;;;21.45;7.10;;;14.30;99.90;;;;;;4192567;28;20021;-61
2023/09/18 02:22:46;;;;;;;9.48;5.55;;;14.40;99.90;;;;;;4194502;28;20518;-62
2023/09/18 02:24:48;;;;;;;20.38;6.20;;;14.40;99.90;;;;;;4193099;28;20082;-61
2023/09/18 02:26:49;;;;;;;14.32;6.90;;;14.40;99.90;;;;;;4193091;28;20045;-63
2023/09/18 02:28:53;;;;;;;12.70;6.57;;;14.50;99.90;;;;;;4192426;28;20028;-62
2023/09/18 02:30:54;;;;;;;9.35;6.38;;;14.40;99.90;;;;;;4193922;28;20037;-61
2023/09/18 02:32:55;;;;;;;11.80;6.70;;;14.50;99.90;;;;;;4192527;28;20032;-62
2023/09/18 02:34:56;;;;;;;11.52;6.72;;;14.40;99.90;;;;;;4192372;28;20358;-60
2023/09/18 02:36:57;;;;;;;16.65;6.70;;;14.40;99.90;;;;;;4191912;28;20089;-60
2023/09/18 02:38:59;;;;;;;13.48;6.43;;;14.50;99.90;;;;;;4193060;28;20041;-62
2023/09/18 02:41:00;;;;;;;12.57;6.63;;;14.50;99.90;;;;;;4192634;28;20020;-61
2023/09/18 02:43:02;;;;;;;9.77;6.05;;;14.50;99.90;;;;;;4192708;28;20036;-61
2023/09/18 02:45:03;;;;;;;14.93;6.20;;;14.50;99.90;;;;;;4192487;28;20434;-62
2023/09/18 02:47:04;;;;;;;9.38;6.22;;;14.50;99.90;;;;;;4175087;28;20075;-64
2023/09/18 02:49:06;;;;;;;17.15;6.28;;;14.50;99.90;;;;;;4193254;28;20036;-64
2023/09/18 02:51:08;;;;;;;10.55;5.40;;;14.50;99.90;;;;;;4191026;28;20339;-62
2023/09/18 02:53:19;;;;;;;15.63;5.85;;;14.40;99.90;;;;;;4194404;28;20025;-62
2023/09/18 02:55:21;;;;;;;9.48;5.20;;;14.40;99.90;;;;;;4192357;28;20057;-62
2023/09/18 02:57:22;;;;;;;11.10;5.78;;;14.40;99.90;;;;;;4193819;28;20093;-62
2023/09/18 02:59:23;;;;;;;7.78;5.25;;;14.40;99.90;;;;;;4192005;28;20118;-63
2023/09/18 03:01:24;;;;;;;7.63;4.88;;;14.40;99.90;;;;;;4192706;28;20102;-63
2023/09/18 03:03:25;;;;;;;8.70;4.68;;;14.40;99.90;;;;;;4191655;28;20052;-65
2023/09/18 03:05:27;;;;;;;8.75;5.18;;;14.50;99.90;;;;;;4193900;28;20040;-62
2023/09/18 03:07:31;;;;;;;7.22;4.65;;;14.50;99.90;;;;;;4194606;28;20405;-63
2023/09/18 03:09:32;;;;;;;5.82;4.32;;;14.50;99.90;;;;;;4196058;28;20028;-63
2023/09/18 03:11:33;;;;;;;8.35;5.57;;;14.40;99.90;;;;;;4195918;28;20024;-63
2023/09/18 03:13:34;;;;;;;11.68;6.15;;;14.40;99.90;;;;;;4196838;28;20074;-61
2023/09/18 03:15:36;;;;;;;9.05;4.95;;;14.30;99.90;;;;;;4195295;28;20044;-62
2023/09/18 03:17:40;;;;;;;7.40;4.32;;;14.20;99.90;;;;;;4195968;28;20059;-62
2023/09/18 03:19:41;;;;;;;7.15;4.53;;;14.20;99.90;;;;;;4196385;28;20157;-62
2023/09/18 03:23:57;;;;;;;7.82;4.80;;;14.10;99.90;;;;;;4621076;22;20044;-63
2023/09/18 03:25:59;;;;;;;6.57;5.15;;;14.10;99.90;;;;;;4193578;28;20114;-60
2023/09/18 03:28:00;;;;;;;6.45;4.40;;;14.00;99.90;;;;;;4194947;28;20041;-63
2023/09/18 03:30:01;;;;;;;8.63;4.60;;;13.90;99.90;;;;;;4194759;28;20121;-60
2023/09/18 03:32:03;;;;;;;7.45;5.10;;;13.90;99.90;;;;;;4196356;28;20028;-61
2023/09/18 03:34:04;;;;;;;7.03;3.90;;;13.80;99.90;;;;;;4194766;28;20040;-62
2023/09/18 03:36:06;;;;;;;6.82;4.63;;;13.80;99.90;;;;;;4195770;28;20074;-61
2023/09/18 03:38:07;;;;;;;4.18;3.78;;;13.70;99.90;;;;;;4195502;28;20040;-63
2023/09/18 03:40:09;;;;;;;8.95;5.88;;;13.70;99.90;;;;;;4195424;28;20529;-63
2023/09/18 03:42:10;;;;;;;8.55;5.38;;;13.60;99.90;;;;;;4195600;28;20094;-60
2023/09/18 03:44:11;;;;;;;12.75;5.60;;;13.50;99.90;;;;;;4194674;28;20105;-62
2023/09/18 03:46:12;;;;;;;12.82;6.20;;;13.40;99.90;;;;;;4195139;28;20553;-62
2023/09/18 03:48:13;;;;;;;11.70;7.28;;;13.30;99.90;;;;;;4195223;28;20063;-63
2023/09/18 03:50:15;;;;;;;14.60;6.97;;;13.30;99.90;;;;;;4179894;28;20059;-60
2023/09/18 03:52:16;;;;;;;11.30;6.63;;;13.20;99.90;;;;;;4179219;28;20029;-61
2023/09/18 03:54:17;;;;;;;14.73;6.70;;;13.20;99.90;;;;;;4195763;28;20419;-62
2023/09/18 03:56:18;;;;;;;12.87;7.53;;;13.20;99.90;;;;;;4193753;28;20912;-61
2023/09/18 03:58:19;;;;;;;10.77;7.17;;;13.20;99.90;;;;;;4184864;28;20086;-64
2023/09/18 04:00:23;;;;;;;11.00;7.03;;;13.20;99.90;;;;;;4175914;28;20492;-63
2023/09/18 04:02:26;;;;;;;10.57;7.07;;;13.20;99.90;;;;;;4194136;28;20102;-62
2023/09/18 04:04:28;;;;;;;12.43;7.47;;;13.20;99.90;;;;;;4195097;28;20025;-63
2023/09/18 04:06:43;;;;;;;13.17;7.13;;;13.30;99.90;;;;;;4192861;28;20048;-63
2023/09/18 04:08:44;;;;;;;13.50;7.53;;;13.30;99.90;;;;;;4194492;28;20480;-62
2023/09/18 04:10:46;;;;;;;12.30;6.93;;;13.30;99.90;;;;;;4195081;28;20106;-65
2023/09/18 04:12:47;;;;;;;10.57;7.50;;;13.30;99.90;;;;;;4195216;28;20074;-63
2023/09/18 04:14:48;;;;;;;15.97;7.43;;;13.20;99.90;;;;;;4194728;28;20103;-62
2023/09/18 04:16:49;;;;;;;13.67;7.20;;;13.20;99.90;;;;;;4175419;28;20087;-61
2023/09/18 04:18:50;;;;;;;14.63;7.82;;;13.30;99.90;;;;;;4194560;28;20028;-62
2023/09/18 04:20:51;;;;;;;14.73;7.37;;;13.30;99.90;;;;;;4194807;28;20044;-62
2023/09/18 04:23:24;;;;;;;14.37;7.33;;;13.40;99.90;;;;;;4194137;28;20098;-64
2023/09/18 04:25:26;;;;;;;14.73;8.30;;;13.40;99.90;;;;;;4196157;28;20056;-67
2023/09/18 04:27:27;;;;;;;14.77;8.67;;;13.40;99.90;;;;;;4193016;28;20037;-62
2023/09/18 04:29:28;;;;;;;15.67;8.13;;;13.50;99.90;;;;;;4195531;28;20033;-64
2023/09/18 04:31:29;;;;;;;14.40;8.20;;;13.70;99.90;;;;;;4193345;28;20165;-64
2023/09/18 04:33:30;;;;;;;13.60;7.70;;;13.80;99.90;;;;;;4195163;28;20452;-63
2023/09/18 04:35:31;;;;;;;12.65;7.80;;;14.00;99.90;;;;;;4194048;28;20492;-62
2023/09/18 04:37:37;;;;;;;20.73;7.82;;;14.10;99.90;;;;;;4195574;28;20087;-62
2023/09/18 04:39:38;;;;;;;15.43;7.00;;;14.20;99.90;;;;;;4194204;28;20021;-60
2023/09/18 04:41:39;;;;;;;11.18;6.45;;;14.30;99.90;;;;;;4194824;28;20082;-61
2023/09/18 04:43:42;;;;;;;14.10;7.35;;;14.30;99.90;;;;;;4193584;28;20048;-64
2023/09/18 04:45:44;;;;;;;13.55;7.15;;;14.40;99.90;;;;;;4193893;28;20036;-63
2023/09/18 04:47:45;;;;;;;35.50;8.48;;;14.40;99.90;;;;;;4178232;28;20522;-60
2023/09/18 04:49:49;;;;;;;12.63;7.57;;;14.40;99.90;;;;;;4187416;28;20041;-61
2023/09/18 04:51:50;;;;;;;14.02;8.38;;;14.60;99.90;;;;;;4194603;28;20553;-60
2023/09/18 04:53:51;;;;;;;11.70;7.35;;;14.60;99.90;;;;;;4190254;28;20040;-62
2023/09/18 04:55:53;;;;;;;17.30;8.23;;;14.80;99.90;;;;;;4195076;28;20122;-60
2023/09/18 04:57:54;;;;;;;19.00;8.38;;;14.90;99.90;;;;;;4193134;28;20094;-60
2023/09/18 04:59:55;;;;;;;18.02;7.28;;;15.20;99.90;;;;;;4194428;28;20435;-61
2023/09/18 05:01:57;;;;;;;13.23;7.28;;;15.60;99.90;;;;;;4193735;28;20089;-61
2023/09/18 05:03:58;;;;;;;16.13;7.97;;;15.90;99.90;;;;;;4194645;28;20028;-60
2023/09/18 05:05:59;;;;;;;13.35;7.32;;;16.30;99.90;;;;;;4191973;28;20041;-64
2023/09/18 05:08:02;;;;;;;14.30;7.18;;;16.60;99.90;;;;;;4193863;28;20032;-63
2023/09/18 05:10:04;;;;;;;17.70;7.25;;;16.80;99.90;;;;;;4193053;28;20528;-63
2023/09/18 05:12:13;;;;;;;15.85;8.00;;;16.90;99.90;;;;;;4195276;28;20097;-63
2023/09/18 05:14:16;;;;;;;11.57;7.57;;;17.00;99.90;;;;;;4192577;28;20442;-62
2023/09/18 05:16:17;;;;;;;16.50;7.38;;;17.30;99.90;;;;;;4193397;28;20040;-61
2023/09/18 05:18:19;;;;;;;15.00;8.25;;;17.50;99.90;;;;;;4193641;28;20029;-59
2023/09/18 05:20:24;;;;;;;15.00;6.95;;;17.90;99.90;;;;;;4193577;28;20098;-62
2023/09/18 05:22:25;;;;;;;12.50;6.65;;;18.30;99.90;;;;;;4194070;28;20098;-62
2023/09/18 05:24:27;;;;;;;12.60;6.22;;;18.60;99.90;;;;;;4193185;28;20110;-64
2023/09/18 05:26:30;;;;;;;14.68;5.85;;;18.90;99.90;;;;;;4193686;28;20101;-64
2023/09/18 05:28:31;;;;;;;10.73;5.95;;;19.00;99.90;;;;;;4192755;28;20083;-61
2023/09/18 05:30:35;;;;;;;8.98;6.03;;;19.10;99.90;;;;;;4194558;28;20089;-61
2023/09/18 05:32:36;;;;;;;10.88;6.00;;;19.30;99.90;;;;;;4192666;28;20048;-64
2023/09/18 05:34:37;;;;;;;17.23;6.35;;;19.40;99.90;;;;;;4193697;28;20569;-62
2023/09/18 05:36:39;;;;;;;15.60;7.15;;;19.40;99.90;;;;;;4193794;28;20032;-64
2023/09/18 05:38:40;;;;;;;21.92;8.60;;;19.30;99.90;;;;;;4194489;28;20036;-61
2023/09/18 05:40:41;;;;;;;18.95;9.52;;;19.10;99.90;;;;;;4192749;28;20086;-62
2023/09/18 05:42:43;;;;;;;24.90;9.75;;;19.20;99.90;;;;;;4194672;28;20427;-62
2023/09/18 05:44:45;;;;;;;28.63;10.40;;;19.20;99.90;;;;;;4192528;28;20041;-65
2023/09/18 05:46:46;;;;;;;21.70;10.48;;;19.30;99.90;;;;;;4194479;28;20028;-63
2023/09/18 05:48:47;;;;;;;23.70;10.30;;;19.50;99.90;;;;;;4193194;28;20032;-61
2023/09/18 05:50:48;;;;;;;32.60;11.68;;;19.60;99.90;;;;;;4193487;28;20044;-62
2023/09/18 05:52:49;;;;;;;21.25;10.57;;;19.90;99.90;;;;;;4193387;28;20021;-62
2023/09/18 05:54:51;;;;;;;22.60;11.10;;;19.90;99.90;;;;;;4193006;28;20190;-62
2023/09/18 05:56:52;;;;;;;30.08;14.18;;;20.00;99.90;;;;;;4192783;28;20404;-63
2023/09/18 05:58:55;;;;;;;33.25;13.73;;;20.10;99.90;;;;;;4193614;28;20070;-62
2023/09/18 06:00:56;;;;;;;23.58;10.20;;;20.10;99.90;;;;;;4193272;28;20044;-61
2023/09/18 06:02:58;;;;;;;16.00;9.02;;;19.70;99.90;;;;;;4192301;28;20473;-61
2023/09/18 06:05:06;;;;;;;18.27;8.20;;;19.40;99.90;;;;;;4194146;28;20419;-61
2023/09/18 06:07:07;;;;;;;27.67;9.27;;;19.60;99.90;;;;;;4192998;28;20024;-61
2023/09/18 06:09:08;;;;;;;21.50;8.60;;;19.50;99.90;;;;;;4192734;28;20044;-61
2023/09/18 06:11:09;;;;;;;17.67;9.18;;;19.60;99.90;;;;;;4192061;28;20443;-62
2023/09/18 06:13:10;;;;;;;17.38;9.23;;;19.70;99.90;;;;;;4193050;28;20036;-62
2023/09/18 06:15:12;;;;;;;25.65;9.40;;;20.00;99.90;;;;;;4191901;28;20102;-62
2023/09/18 06:17:17;;;;;;;27.70;9.75;;;20.20;99.90;;;;;;4193263;28;20058;-63
2023/09/18 06:19:18;;;;;;;35.13;10.10;;;20.30;99.90;;;;;;4192351;28;20040;-63
2023/09/18 06:21:19;;;;;;;32.58;11.95;;;20.60;99.90;;;;;;4193068;28;20106;-64
2023/09/18 06:23:20;;;;;;;19.15;8.77;;;20.90;99.90;;;;;;4192522;28;20032;-61
2023/09/18 06:25:22;;;;;;;21.80;9.23;;;21.00;99.90;;;;;;4193206;28;20431;-62
2023/09/18 06:27:23;;;;;;;16.55;7.60;;;21.30;99.90;;;;;;4193084;28;20051;-61
2023/09/18 06:29:24;;;;;;;20.08;8.48;;;21.30;99.90;;;;;;4192561;28;20094;-64
2023/09/18 06:31:26;;;;;;;16.65;9.10;;;21.50;99.90;;;;;;4192431;28;20526;-61
2023/09/18 06:33:27;;;;;;;18.83;8.15;;;21.90;99.90;;;;;;4192683;28;20403;-62
2023/09/18 06:35:28;;;;;;;17.23;8.43;;;21.80;99.90;;;;;;4174899;28;20126;-64
2023/09/18 06:37:29;;;;;;;18.45;8.07;;;21.60;99.90;;;;;;4192185;28;20476;-64
2023/09/18 06:39:30;;;;;;;18.00;8.65;;;21.40;99.90;;;;;;4175193;28;20491;-62
2023/09/18 06:41:32;;;;;;;13.27;7.25;;;21.70;99.90;;;;;;4195467;28;20098;-64
2023/09/18 06:43:33;;;;;;;14.85;6.45;;;22.00;99.90;;;;;;4196256;28;20488;-62
2023/09/18 06:45:34;;;;;;;14.18;7.25;;;21.60;99.90;;;;;;4196232;28;20037;-63
2023/09/18 06:47:35;;;;;;;12.20;7.22;;;21.30;99.90;;;;;;4197259;28;20028;-62
2023/09/18 06:49:36;;;;;;;16.80;7.60;;;20.60;99.90;;;;;;4195301;28;20094;-64
2023/09/18 06:51:37;;;;;;;13.88;7.55;;;20.50;99.90;;;;;;4197236;28;20025;-64
2023/09/18 06:53:39;;;;;;;13.77;7.95;;;20.30;99.90;;;;;;4195084;28;20177;-63
2023/09/18 06:55:40;;;;;;;9.20;6.90;;;20.00;99.90;;;;;;4196103;28;20091;-64
2023/09/18 06:57:41;;;;;;;11.18;6.07;;;20.00;99.90;;;;;;4195945;28;20035;-62
2023/09/18 06:59:42;;;;;;;11.85;6.32;;;20.10;99.90;;;;;;4195719;28;20090;-65
2023/09/18 07:01:43;;;;;;;10.00;6.93;;;20.00;99.90;;;;;;4196420;28;20086;-62
2023/09/18 07:03:46;;;;;;;11.07;6.60;;;19.70;99.90;;;;;;4196170;28;20033;-64
2023/09/18 07:05:48;;;;;;;7.60;6.13;;;19.50;99.90;;;;;;4196665;28;20051;-65
2023/09/18 07:07:49;;;;;;;9.07;6.07;;;19.40;99.90;;;;;;4194954;28;20090;-60
2023/09/18 07:09:50;;;;;;;11.23;6.57;;;19.40;99.90;;;;;;4195793;28;20033;-61
2023/09/18 07:11:52;;;;;;;9.15;6.18;;;19.70;99.90;;;;;;4194762;28;20046;-61
2023/09/18 07:13:53;;;;;;;8.90;5.93;;;19.60;99.90;;;;;;4178653;28;20095;-60
2023/09/18 07:15:54;;;;;;;7.45;6.05;;;19.70;99.90;;;;;;4194908;28;20066;-61
2023/09/18 07:17:55;;;;;;;8.40;7.10;;;19.70;99.90;;;;;;4196869;28;20033;-62
2023/09/18 07:19:56;;;;;;;10.70;6.60;;;19.80;99.90;;;;;;4195204;28;20042;-61
2023/09/18 07:21:57;;;;;;;9.48;7.22;;;19.70;99.90;;;;;;4196256;28;20479;-60
2023/09/18 07:23:59;;;;;;;12.23;7.07;;;19.80;99.90;;;;;;4194260;28;20047;-62
2023/09/18 07:26:00;;;;;;;10.98;7.70;;;19.90;99.90;;;;;;4196653;28;20464;-64
2023/09/18 07:28:01;;;;;;;8.35;6.18;;;20.00;99.90;;;;;;4195078;28;20040;-63
2023/09/18 07:30:04;;;;;;;9.93;6.38;;;20.00;99.90;;;;;;4194991;28;20052;-60
2023/09/18 07:32:05;;;;;;;8.95;5.97;;;19.90;99.90;;;;;;4195975;28;20070;-61
2023/09/18 07:34:06;;;;;;;7.10;5.95;;;19.90;99.90;;;;;;4195246;28;20036;-62
2023/09/18 07:36:09;;;;;;;10.77;5.75;;;20.00;99.90;;;;;;4195849;28;20044;-63
2023/09/18 07:38:11;;;;;;;9.73;6.00;;;20.10;99.90;;;;;;4194384;28;20040;-62
2023/09/18 07:40:12;;;;;;;7.97;5.80;;;20.20;99.90;;;;;;4195978;28;20032;-61
2023/09/18 07:42:13;;;;;;;8.63;5.80;;;20.30;99.90;;;;;;4194848;28;20098;-61
2023/09/18 07:44:23;;;;;;;10.48;6.38;;;20.60;99.90;;;;;;4196091;28;20078;-61
2023/09/18 07:46:24;;;;;;;9.55;6.15;;;20.70;99.90;;;;;;4193981;28;20067;-60
2023/09/18 07:48:25;;;;;;;7.72;5.75;;;20.80;99.90;;;;;;4195694;28;20036;-61
2023/09/18 07:50:27;;;;;;;11.02;6.10;;;21.00;99.90;;;;;;4194222;28;20151;-62
2023/09/18 07:52:30;;;;;;;7.15;5.93;;;21.40;99.90;;;;;;4194792;28;20430;-62
2023/09/18 07:54:31;;;;;;;9.13;5.88;;;21.80;99.90;;;;;;4194288;28;20101;-59
2023/09/18 07:56:34;;;;;;;7.53;5.53;;;22.10;99.90;;;;;;4195239;28;20045;-61
2023/09/18 07:58:38;;;;;;;9.88;5.88;;;22.30;99.90;;;;;;4195027;28;20048;-61
2023/09/18 08:00:39;;;;;;;7.50;5.22;;;22.30;99.90;;;;;;4196205;28;20131;-61
2023/09/18 08:02:41;;;;;;;9.75;5.55;;;22.30;99.90;;;;;;4194843;28;20025;-61
2023/09/18 08:04:43;;;;;;;8.43;5.43;;;22.10;99.90;;;;;;4194619;28;20066;-62
2023/09/18 08:06:44;;;;;;;5.32;4.45;;;22.00;99.90;;;;;;4195278;28;20090;-61
2023/09/18 08:08:46;;;;;;;5.53;4.93;;;22.00;99.90;;;;;;4194507;28;20048;-64
2023/09/18 08:10:47;;;;;;;7.90;4.47;;;22.00;99.90;;;;;;4195487;28;20028;-62
2023/09/18 08:12:51;;;;;;;5.82;4.50;;;21.90;99.90;;;;;;4193930;28;20033;-64
2023/09/18 08:14:52;;;;;;;7.53;4.22;;;21.80;99.90;;;;;;4194612;28;20032;-62
2023/09/18 08:17:00;;;;;;;6.05;4.40;;;21.90;99.90;;;;;;4193619;28;20032;-63
2023/09/18 08:19:02;;;;;;;6.22;4.20;;;22.00;99.90;;;;;;4194227;28;20442;-62
2023/09/18 08:21:04;;;;;;;6.03;4.25;;;22.20;99.90;;;;;;4193444;28;20044;-63
2023/09/18 08:23:05;;;;;;;6.47;4.00;;;22.50;99.90;;;;;;4194323;28;20438;-61
2023/09/18 08:25:13;;;;;;;5.95;4.35;;;22.60;99.90;;;;;;4193446;28;20036;-61
2023/09/18 08:27:18;;;;;;;4.93;3.88;;;22.60;99.90;;;;;;4195428;28;21036;-61
2023/09/18 08:29:19;;;;;;;9.32;4.10;;;22.60;99.90;;;;;;4193148;28;20542;-60
2023/09/18 08:31:20;;;;;;;4.82;3.80;;;22.90;99.90;;;;;;4194160;28;20036;-62
2023/09/18 08:33:21;;;;;;;4.53;4.03;;;23.10;99.90;;;;;;4193366;28;20550;-57
2023/09/18 08:35:22;;;;;;;5.47;3.92;;;23.40;99.90;;;;;;4195153;28;20463;-61
2023/09/18 08:37:23;;;;;;;9.38;3.60;;;23.30;99.90;;;;;;4194167;28;20036;-60
2023/09/18 08:39:24;;;;;;;9.50;3.50;;;23.20;99.90;;;;;;4194955;28;20066;-60
2023/09/18 08:41:30;;;;;;;10.48;4.18;;;23.00;99.90;;;;;;4193822;28;20044;-61
2023/09/18 08:43:33;;;;;;;5.47;3.67;;;23.00;99.90;;;;;;4193875;28;20033;-59
2023/09/18 08:45:43;;;;;;;6.05;4.15;;;23.10;99.90;;;;;;4193745;28;20041;-61
2023/09/18 08:47:46;;;;;;;5.38;3.90;;;23.10;99.90;;;;;;4193585;28;20037;-61
2023/09/18 08:49:49;;;;;;;3.63;3.25;;;23.10;99.90;;;;;;4193718;28;20028;-60
2023/09/18 08:51:53;;;;;;;4.47;3.83;;;23.40;99.90;;;;;;4193199;28;20106;-60
2023/09/18 08:53:56;;;;;;;4.40;3.72;;;23.60;99.90;;;;;;4194369;28;20040;-61
2023/09/18 08:55:58;;;;;;;5.25;3.70;;;23.80;99.90;;;;;;4193651;28;20044;-60
2023/09/18 08:58:00;;;;;;;5.20;3.25;;;23.80;99.90;;;;;;4194954;28;20430;-62
2023/09/18 09:00:06;;;;;;;5.60;4.38;;;23.90;99.90;;;;;;4193796;28;20040;-60
2023/09/18 09:02:11;;;;;;;5.72;4.05;;;23.90;99.90;;;;;;4194165;28;20048;-61
2023/09/18 09:04:12;;;;;;;4.10;3.60;;;24.00;99.90;;;;;;4193363;28;20032;-60
2023/09/18 09:06:13;;;;;;;7.03;3.53;;;23.90;99.90;;;;;;4195018;28;20491;-60
2023/09/18 09:08:15;;;;;;;4.25;3.53;;;24.10;99.90;;;;;;4192931;28;20118;-60
2023/09/18 09:10:16;;;;;;;4.95;3.45;;;24.00;99.90;;;;;;4194917;28;20032;-60
2023/09/18 09:12:53;;;;;;;3.92;3.33;;;24.00;99.90;;;;;;4192831;28;20037;-59
2023/09/18 09:15:04;;;;;;;9.57;4.22;;;24.00;99.90;;;;;;4193919;28;20418;-65
2023/09/18 09:17:06;;;;;;;6.32;3.80;;;24.00;99.90;;;;;;4192854;28;20044;-61
2023/09/18 09:19:07;;;;;;;6.85;4.35;;;24.00;99.90;;;;;;4194601;28;20082;-62
2023/09/18 09:21:08;;;;;;;5.10;3.53;;;24.00;99.90;;;;;;4192703;28;20044;-65
2023/09/18 09:23:10;;;;;;;5.07;3.65;;;23.80;99.90;;;;;;4194169;28;20423;-60
2023/09/18 09:25:21;;;;;;;5.53;4.07;;;23.80;99.90;;;;;;4193110;28;20048;-63
2023/09/18 09:27:22;;;;;;;7.05;3.75;;;23.80;99.90;;;;;;4193626;28;20040;-60
2023/09/18 09:29:23;;;;;;;3.92;2.90;;;23.90;99.90;;;;;;4193484;28;20419;-60
2023/09/18 09:31:30;;;;;;;4.47;3.53;;;23.90;99.90;;;;;;4193684;28;20044;-60
2023/09/18 09:33:31;;;;;;;6.55;3.70;;;23.80;99.90;;;;;;4193389;28;20503;-61
2023/09/18 09:35:36;;;;;;;5.72;4.00;;;23.80;99.90;;;;;;4193183;28;20445;-60
2023/09/18 09:37:39;;;;;;;3.78;3.30;;;23.80;99.90;;;;;;4193623;28;20119;-60
2023/09/18 09:39:50;;;;;;;5.55;3.60;;;23.90;99.90;;;;;;4193531;28;20081;-62
2023/09/18 09:41:54;;;;;;;5.80;3.90;;;23.80;99.90;;;;;;4192836;28;20534;-63
2023/09/18 09:43:56;;;;;;;3.72;3.20;;;23.80;99.90;;;;;;4192610;28;20044;-64
2023/09/18 09:46:01;;;;;;;6.55;4.05;;;23.90;99.90;;;;;;4193905;28;20078;-63
2023/09/18 09:48:04;;;;;;;5.82;3.83;;;23.80;99.90;;;;;;4192388;28;20075;-61
2023/09/18 09:50:09;;;;;;;4.93;3.40;;;23.70;99.90;;;;;;4192808;28;20098;-60
2023/09/18 09:52:21;;;;;;;5.25;3.45;;;23.90;99.90;;;;;;4192110;28;20044;-61
2023/09/18 09:54:36;;;;;;;4.57;3.38;;;23.90;99.90;;;;;;4193910;28;20422;-61
2023/09/18 09:56:48;;;;;;;4.93;3.65;;;24.10;99.90;;;;;;4192824;28;20105;-64
2023/09/18 09:59:04;;;;;;;4.20;3.70;;;24.20;99.90;;;;;;4192864;28;20090;-61
2023/09/18 10:01:10;;;;;;;6.65;3.63;;;24.20;99.90;;;;;;4192516;28;20033;-61
2023/09/18 10:03:15;;;;;;;5.38;3.50;;;24.20;99.90;;;;;;4193871;28;20028;-62
2023/09/18 10:05:18;;;;;;;6.90;3.13;;;24.20;99.90;;;;;;4192343;28;20090;-63
2023/09/18 10:07:20;;;;;;;3.75;3.45;;;24.30;99.90;;;;;;4193844;28;20078;-61
2023/09/18 10:09:23;;;;;;;7.82;3.67;;;24.40;99.90;;;;;;4191579;28;20044;-61
2023/09/18 10:11:26;;;;;;;4.95;3.70;;;24.20;99.90;;;;;;4192993;28;20086;-62
2023/09/18 10:13:51;;;;;;;5.00;3.35;;;24.20;99.90;;;;;;4192866;28;20025;-61
2023/09/18 10:15:54;;;;;;;7.25;3.63;;;24.10;99.90;;;;;;4192306;28;20113;-62
2023/09/18 10:17:59;;;;;;;6.05;3.20;;;24.20;99.90;;;;;;4193025;28;20136;-62
2023/09/18 10:20:08;;;;;;;5.85;3.90;;;24.20;99.90;;;;;;4193028;28;20136;-61
2023/09/18 10:22:37;;;;;;;4.82;3.97;;;24.20;99.90;;;;;;4191884;28;20425;-61
2023/09/18 10:24:43;;;;;;;4.70;3.60;;;24.10;99.90;;;;;;4193770;28;20411;-62
2023/09/18 10:26:54;;;;;;;4.47;3.55;;;24.00;99.90;;;;;;4193037;28;20062;-63
2023/09/18 10:28:59;;;;;;;3.47;2.97;;;24.10;99.90;;;;;;4192876;28;20037;-60
2023/09/18 10:31:01;;;;;;;5.72;4.28;;;24.20;99.90;;;;;;4192105;28;20384;-60
2023/09/18 10:33:02;;;;;;;3.92;3.35;;;24.20;99.90;;;;;;4193020;28;20028;-61
2023/09/18 10:35:05;;;;;;;3.92;3.53;;;24.20;99.90;;;;;;4192669;28;20036;-62
2023/09/18 10:37:09;;;;;;;4.50;3.75;;;24.30;99.90;;;;;;4193707;28;20118;-62